Seneca, Wisconsin
Current Conditions -  °F | °C
As of 5:25 PM on Monday 22 Dec 2014 (Local Time) from KOVS Reporting Station
Haze Haze  
Wind Chill: 31°   Ceiling: 800
Heat Index: 35°   Visibility: 2.5mi
Dew Point: 33°   Wind: 5mph
Humidity: 92%   Direction: 70°ENE
Pressure: 29.62"   Gusts: NA
Location:  43.27°N, 90.96°W
Report Text: KOVS 222325Z AUTO 07004KT 2 1/2SM BR OVC008 02/01 A2962 RMK AO2 RAE10 CIG 006V011 P0001 T00170006
Loading
Personal Weather Stations






























Interactive Weather Map New forecast layout! Learn more

10-Day Weather Forecast

Advertisements
Track Severe Weather on mobile